createdAt,value
2023-01-02T00:01:43.572Z,98888.05
2023-01-02T00:04:11.635Z,98891.04
2023-01-02T00:06:40.166Z,98885.48
2023-01-02T00:09:09.339Z,98887.53
2023-01-02T00:11:37.408Z,98889.61
2023-01-02T00:14:05.540Z,98887.33
2023-01-02T00:16:33.777Z,98885.73
2023-01-02T00:19:01.920Z,98888.77
2023-01-02T00:21:29.974Z,98884.07
2023-01-02T00:23:58.053Z,98882.91
2023-01-02T00:26:26.242Z,98889.20
2023-01-02T00:28:54.702Z,98889.10
2023-01-02T00:31:22.863Z,98892.02
2023-01-02T00:33:50.943Z,98893.20
2023-01-02T00:36:18.949Z,98893.19
2023-01-02T00:38:46.986Z,98891.55
2023-01-02T00:41:15.003Z,98888.84
2023-01-02T00:43:43.769Z,98887.94
2023-01-02T00:46:12.439Z,98889.77
2023-01-02T00:48:41.203Z,98891.69
2023-01-02T00:51:09.786Z,98895.40
2023-01-02T00:53:38.100Z,98893.73
2023-01-02T00:56:06.635Z,98892.38
2023-01-02T00:58:35.255Z,98888.89
2023-01-02T01:01:04.072Z,98885.61
2023-01-02T01:03:32.255Z,98880.65
2023-01-02T01:06:06.437Z,98877.65
2023-01-02T01:08:36.704Z,98882.11
2023-01-02T01:11:06.912Z,98881.41
2023-01-02T01:13:35.025Z,98878.64
2023-01-02T01:16:08.170Z,98874.19
2023-01-02T01:18:37.340Z,98873.60
2023-01-02T01:21:10.553Z,98873.00
2023-01-02T01:23:38.718Z,98870.44
2023-01-02T01:26:09.944Z,98868.11
2023-01-02T01:28:40.842Z,98867.90
2023-01-02T01:31:15.141Z,98862.93
2023-01-02T01:33:44.129Z,98862.74
2023-01-02T01:36:27.084Z,98856.15
2023-01-02T01:38:55.171Z,98857.02
2023-01-02T01:41:25.994Z,98855.95
2023-01-02T01:43:57.238Z,98856.35
2023-01-02T01:46:27.243Z,98853.94
2023-01-02T01:49:04.326Z,98851.09
2023-01-02T01:51:36.371Z,98853.16
2023-01-02T01:54:10.554Z,98848.70
2023-01-02T01:56:43.783Z,98847.84
2023-01-02T01:59:12.774Z,98847.30
2023-01-02T02:01:43.721Z,98848.12
2023-01-02T02:04:14.979Z,98848.05
2023-01-02T02:06:43.508Z,98841.91
2023-01-02T02:09:11.409Z,98841.16
2023-01-02T02:11:40.315Z,98845.35
2023-01-02T02:14:08.580Z,98840.70
2023-01-02T02:16:54.302Z,98842.20
2023-01-02T02:19:41.091Z,98844.31
2023-01-02T02:22:21.365Z,98844.59
2023-01-02T02:25:16.048Z,98842.30
2023-01-02T02:27:47.163Z,98846.96
2023-01-02T02:30:23.737Z,98848.25
2023-01-02T02:33:08.557Z,98845.52
2023-01-02T02:35:49.616Z,98844.38
2023-01-02T02:38:29.891Z,98845.52
2023-01-02T02:41:07.065Z,98852.17
2023-01-02T02:43:49.981Z,98854.27
2023-01-02T02:46:38.466Z,98852.04
2023-01-02T02:49:28.761Z,98849.36
2023-01-02T02:52:06.248Z,98848.35
2023-01-02T02:54:41.338Z,98854.55
2023-01-02T02:57:10.658Z,98853.22
2023-01-02T02:59:41.198Z,98850.96
2023-01-02T03:02:15.284Z,98849.83
2023-01-02T03:04:52.844Z,98844.64
2023-01-02T03:07:20.768Z,98841.77
2023-01-02T03:09:52.725Z,98837.52
2023-01-02T03:12:39.323Z,98840.89
2023-01-02T03:15:14.604Z,98840.74
2023-01-02T03:17:42.533Z,98842.86
2023-01-02T03:20:14.240Z,98838.99
2023-01-02T03:22:50.033Z,98836.91
2023-01-02T03:25:21.170Z,98839.05
2023-01-02T03:27:51.700Z,98836.88
2023-01-02T03:30:22.011Z,98833.74
2023-01-02T03:32:58.364Z,98831.96
2023-01-02T03:35:33.346Z,98833.36
2023-01-02T03:38:04.067Z,98835.20
2023-01-02T03:40:39.175Z,98833.63
2023-01-02T03:43:21.853Z,98831.71
2023-01-02T03:46:04.272Z,98831.26
2023-01-02T03:49:13.715Z,98829.73
2023-01-02T03:51:42.029Z,98829.27
2023-01-02T03:54:11.454Z,98832.77
2023-01-02T03:56:54.097Z,98833.62
2023-01-02T03:59:35.240Z,98830.02
2023-01-02T04:02:37.365Z,98823.48
2023-01-02T04:05:21.393Z,98822.16
2023-01-02T04:07:59.271Z,98829.02
2023-01-02T04:10:29.475Z,98831.44
2023-01-02T04:13:02.811Z,98833.23
2023-01-02T04:15:34.663Z,98831.45
2023-01-02T04:18:09.355Z,98827.12
2023-01-02T04:20:51.857Z,98821.45
2023-01-02T04:23:25.667Z,98822.33
2023-01-02T04:26:07.284Z,98821.48
2023-01-02T04:28:36.168Z,98820.86
2023-01-02T04:31:22.210Z,98819.63
2023-01-02T04:33:55.118Z,98816.39
2023-01-02T04:36:23.427Z,98816.18
2023-01-02T04:38:51.734Z,98812.35
2023-01-02T04:41:27.305Z,98809.55
2023-01-02T04:43:56.591Z,98810.44
2023-01-02T04:46:27.301Z,98816.14
2023-01-02T04:48:56.738Z,98817.02
2023-01-02T04:51:25.502Z,98816.99
2023-01-02T04:53:54.220Z,98813.95
2023-01-02T04:56:23.009Z,98809.13
2023-01-02T04:58:51.236Z,98808.92
2023-01-02T05:01:20.987Z,98808.30
2023-01-02T05:03:52.813Z,98806.54
2023-01-02T05:06:21.377Z,98809.75
2023-01-02T05:08:49.614Z,98814.91
2023-01-02T05:11:20.420Z,98811.86
2023-01-02T05:13:48.530Z,98810.09
2023-01-02T05:16:16.961Z,98807.09
2023-01-02T05:18:45.020Z,98806.62
2023-01-02T05:21:32.767Z,98812.91
2023-01-02T05:24:03.095Z,98808.89
2023-01-02T05:26:33.214Z,98804.08
2023-01-02T05:29:01.780Z,98805.77
2023-01-02T05:31:29.940Z,98805.68
2023-01-02T05:33:59.342Z,98806.26
2023-01-02T05:36:27.887Z,98809.17
2023-01-02T05:38:56.631Z,98814.29
2023-01-02T05:41:24.778Z,98815.80
2023-01-02T05:43:55.309Z,98817.67
2023-01-02T05:46:23.525Z,98819.52
2023-01-02T05:48:51.572Z,98818.36
2023-01-02T05:51:20.713Z,98821.58
2023-01-02T05:53:48.890Z,98821.91
2023-01-02T05:56:18.880Z,98819.91
2023-01-02T05:58:48.381Z,98819.77
2023-01-02T06:01:19.431Z,98826.37
2023-01-02T06:03:49.916Z,98831.23
2023-01-02T06:06:20.698Z,98831.19
2023-01-02T06:08:48.862Z,98831.20
2023-01-02T06:11:17.261Z,98826.83
2023-01-02T06:13:45.276Z,98827.02
2023-01-02T06:16:13.484Z,98828.38
2023-01-02T06:18:42.050Z,98831.57
2023-01-02T06:21:16.015Z,98836.23
2023-01-02T06:23:44.438Z,98836.00
2023-01-02T06:26:15.023Z,98837.72
2023-01-02T06:28:44.220Z,98837.41
2023-01-02T06:31:14.948Z,98834.94
2023-01-02T06:33:43.535Z,98839.86
2023-01-02T06:36:18.079Z,98842.23
2023-01-02T06:38:46.848Z,98844.30
2023-01-02T06:41:16.796Z,98847.32
2023-01-02T06:43:49.881Z,98843.80
2023-01-02T06:46:20.822Z,98846.83
2023-01-02T06:48:49.235Z,98848.92
2023-01-02T06:51:20.504Z,98848.56
2023-01-02T06:53:49.514Z,98846.06
2023-01-02T06:56:19.240Z,98846.20
2023-01-02T06:58:47.316Z,98855.92
2023-01-02T07:01:21.093Z,98857.63
2023-01-02T07:03:49.887Z,98859.67
2023-01-02T07:06:20.925Z,98859.02
2023-01-02T07:08:49.721Z,98855.89
2023-01-02T07:11:20.859Z,98861.76
2023-01-02T07:13:51.884Z,98862.27
2023-01-02T07:16:22.668Z,98862.70
2023-01-02T07:18:54.839Z,98864.99
2023-01-02T07:21:23.347Z,98868.36
2023-01-02T07:23:51.532Z,98871.15
2023-01-02T07:26:19.936Z,98868.89
2023-01-02T07:28:48.416Z,98872.10
2023-01-02T07:31:18.625Z,98876.02
2023-01-02T07:33:47.031Z,98874.48
2023-01-02T07:36:18.587Z,98870.20
2023-01-02T07:38:51.407Z,98868.89
2023-01-02T07:41:22.286Z,98863.11
2023-01-02T07:43:51.208Z,98861.90
2023-01-02T07:46:20.654Z,98861.37
2023-01-02T07:48:50.633Z,98858.08
2023-01-02T07:51:24.753Z,98859.89
2023-01-02T07:53:56.893Z,98859.13
2023-01-02T07:56:26.170Z,98854.97
2023-01-02T07:58:54.243Z,98852.99
2023-01-02T08:01:23.123Z,98850.21
2023-01-02T08:03:51.845Z,98854.88
2023-01-02T08:06:20.490Z,98855.65
2023-01-02T08:08:49.108Z,98854.15
2023-01-02T08:11:21.738Z,98854.31
2023-01-02T08:13:50.397Z,98856.15
2023-01-02T08:16:20.743Z,98850.35
2023-01-02T08:18:52.312Z,98850.77
2023-01-02T08:21:20.573Z,98852.39
2023-01-02T08:23:48.786Z,98851.66
2023-01-02T08:26:17.413Z,98852.25
2023-01-02T08:28:45.543Z,98855.48
2023-01-02T08:31:17.243Z,98856.77
2023-01-02T08:33:46.040Z,98855.77
2023-01-02T08:36:15.376Z,98857.86
2023-01-02T08:38:43.808Z,98857.05
2023-01-02T08:41:11.985Z,98858.09
2023-01-02T08:43:41.338Z,98861.73
2023-01-02T08:46:10.634Z,98866.45
2023-01-02T08:48:38.888Z,98868.84
2023-01-02T08:51:07.032Z,98870.83
2023-01-02T08:53:35.578Z,98868.63
2023-01-02T08:56:29.839Z,98869.79
2023-01-02T08:59:04.182Z,98866.98
2023-01-02T09:01:33.842Z,98868.55
2023-01-02T09:04:09.481Z,98868.42
2023-01-02T09:06:42.853Z,98862.45
2023-01-02T09:09:13.840Z,98856.31
2023-01-02T09:11:51.443Z,98853.30
2023-01-02T09:14:22.093Z,98853.45
2023-01-02T09:16:52.420Z,98855.88
2023-01-02T09:19:21.142Z,98853.82
2023-01-02T09:21:49.302Z,98850.19
2023-01-02T09:24:17.771Z,98845.11
2023-01-02T09:26:46.236Z,98840.76
2023-01-02T09:29:15.725Z,98838.17
2023-01-02T09:31:44.367Z,98838.39
2023-01-02T09:34:12.881Z,98840.08
2023-01-02T09:36:41.071Z,98834.86
2023-01-02T09:39:09.988Z,98833.52
2023-01-02T09:41:44.631Z,98827.27
2023-01-02T09:44:26.155Z,98824.11
2023-01-02T09:47:12.516Z,98820.32
2023-01-02T09:50:01.683Z,98819.08
2023-01-02T09:52:35.257Z,98817.12
2023-01-02T09:55:04.557Z,98817.45
2023-01-02T09:57:46.994Z,98820.55
2023-01-02T10:00:26.005Z,98814.93
2023-01-02T10:03:15.876Z,98816.85
2023-01-02T10:05:57.454Z,98813.38
2023-01-02T10:08:48.232Z,98815.45
2023-01-02T10:11:38.149Z,98810.55
2023-01-02T10:14:19.290Z,98809.10
2023-01-02T10:16:59.636Z,98808.58
2023-01-02T10:19:46.730Z,98807.73
2023-01-02T10:22:23.260Z,98808.13
2023-01-02T10:25:15.923Z,98801.13
2023-01-02T10:27:53.247Z,98803.66
2023-01-02T10:30:23.647Z,98798.03
2023-01-02T10:33:09.480Z,98791.10
2023-01-02T10:35:48.064Z,98782.36
2023-01-02T10:38:19.939Z,98777.95
2023-01-02T10:40:50.754Z,98775.86
2023-01-02T10:43:19.961Z,98771.50
2023-01-02T10:45:48.293Z,98771.99
2023-01-02T10:48:17.320Z,98768.25
2023-01-02T10:50:51.564Z,98761.55
2023-01-02T10:53:23.645Z,98756.85
2023-01-02T10:55:52.094Z,98758.55
2023-01-02T10:58:20.417Z,98755.33
2023-01-02T11:01:03.519Z,98753.91
2023-01-02T11:03:31.811Z,98751.66
2023-01-02T11:06:27.044Z,98746.71
2023-01-02T11:08:59.019Z,98738.46
2023-01-02T11:11:30.253Z,98735.65
2023-01-02T11:14:11.559Z,98729.55
2023-01-02T11:16:42.282Z,98727.89
2023-01-02T11:19:29.192Z,98721.52
2023-01-02T11:21:58.266Z,98720.88
2023-01-02T11:24:28.638Z,98721.94
2023-01-02T11:27:00.795Z,98719.27
2023-01-02T11:29:32.092Z,98717.92
2023-01-02T11:32:02.601Z,98716.91
2023-01-02T11:34:47.045Z,98714.34
2023-01-02T11:37:17.469Z,98714.60
2023-01-02T11:39:59.248Z,98711.64
2023-01-02T11:43:02.667Z,98706.94
2023-01-02T11:45:32.750Z,98703.11
2023-01-02T11:48:06.090Z,98699.72
2023-01-02T11:50:36.918Z,98696.67
2023-01-02T11:53:14.198Z,98691.89
2023-01-02T11:56:14.233Z,98692.36
2023-01-02T11:59:18.662Z,98690.64
2023-01-02T12:01:56.141Z,98689.50
2023-01-02T12:04:24.698Z,98690.88
2023-01-02T12:07:17.903Z,98686.92
2023-01-02T12:10:09.019Z,98684.07
2023-01-02T12:12:46.017Z,98682.14
2023-01-02T12:15:14.584Z,98679.13
2023-01-02T12:18:08.033Z,98678.36
2023-01-02T12:20:41.570Z,98677.52
2023-01-02T12:23:23.768Z,98672.98
2023-01-02T12:26:10.008Z,98675.27
2023-01-02T12:28:51.767Z,98674.54
2023-01-02T12:31:31.122Z,98668.44
2023-01-02T12:34:07.927Z,98667.05
2023-01-02T12:36:56.703Z,98670.27
2023-01-02T12:39:44.780Z,98666.55
2023-01-02T12:42:16.274Z,98666.25
2023-01-02T12:44:54.572Z,98667.23
2023-01-02T12:47:31.743Z,98660.83
2023-01-02T12:50:12.846Z,98659.31
2023-01-02T12:53:06.007Z,98660.63
2023-01-02T12:55:54.749Z,98659.55
2023-01-02T12:58:57.274Z,98655.35
2023-01-02T13:01:52.414Z,98653.54
2023-01-02T13:04:43.073Z,98652.09
2023-01-02T13:07:19.855Z,98650.95
2023-01-02T13:09:50.540Z,98645.52
2023-01-02T13:12:22.388Z,98643.73
2023-01-02T13:15:03.185Z,98645.07
2023-01-02T13:17:49.519Z,98648.36
2023-01-02T13:20:42.651Z,98651.66
2023-01-02T13:23:28.986Z,98648.34
2023-01-02T13:26:25.150Z,98648.27
2023-01-02T13:28:53.529Z,98652.33
2023-01-02T13:34:28.854Z,98654.64
2023-01-02T13:37:20.789Z,98653.60
2023-01-02T13:39:53.731Z,98650.74
2023-01-02T13:42:45.241Z,98649.77
2023-01-02T13:45:31.437Z,98655.98
2023-01-02T13:48:06.101Z,98652.80
2023-01-02T13:50:37.304Z,98654.14
2023-01-02T13:53:31.504Z,98655.17
2023-01-02T13:55:59.661Z,98652.59
2023-01-02T13:58:38.950Z,98650.01
2023-01-02T14:01:23.378Z,98644.79
2023-01-02T14:04:09.953Z,98640.05
2023-01-02T14:06:39.392Z,98641.61
2023-01-02T14:09:13.838Z,98645.39
2023-01-02T14:11:55.322Z,98644.52
2023-01-02T14:14:51.097Z,98639.98
2023-01-02T14:17:44.397Z,98642.70
2023-01-02T14:20:18.887Z,98639.05
2023-01-02T14:22:54.152Z,98636.71
2023-01-02T14:25:23.424Z,98637.48
2023-01-02T14:27:56.392Z,98633.36
2023-01-02T14:30:37.721Z,98637.98
2023-01-02T14:33:09.582Z,98639.74
2023-01-02T14:35:50.610Z,98635.98
2023-01-02T14:38:29.448Z,98636.30
2023-01-02T14:41:17.625Z,98631.48
2023-01-02T14:43:47.791Z,98630.77
2023-01-02T14:46:26.057Z,98627.50
2023-01-02T14:49:02.405Z,98630.15
2023-01-02T14:52:04.110Z,98631.77
2023-01-02T14:54:45.037Z,98633.18
2023-01-02T14:57:24.801Z,98633.98
2023-01-02T14:59:55.693Z,98635.65
2023-01-02T15:02:34.459Z,98637.27
2023-01-02T15:05:08.766Z,98636.05
2023-01-02T15:07:43.241Z,98638.84
2023-01-02T15:10:11.316Z,98637.66
2023-01-02T15:13:05.174Z,98640.62
2023-01-02T15:15:43.817Z,98638.70
2023-01-02T15:18:31.341Z,98636.75
2023-01-02T15:21:11.919Z,98635.80
2023-01-02T15:23:45.519Z,98636.77
2023-01-02T15:26:33.217Z,98635.35
2023-01-02T15:29:07.194Z,98634.92
2023-01-02T15:31:39.717Z,98635.56
2023-01-02T15:34:10.456Z,98633.74
2023-01-02T15:36:41.583Z,98634.56
2023-01-02T15:39:28.197Z,98637.71
2023-01-02T15:41:57.644Z,98635.97
2023-01-02T15:44:48.604Z,98635.42
2023-01-02T15:47:22.437Z,98635.67
2023-01-02T15:49:54.088Z,98633.58
2023-01-02T15:52:26.486Z,98633.77
2023-01-02T15:54:54.790Z,98634.27
2023-01-02T15:57:32.089Z,98633.73
2023-01-02T16:00:01.344Z,98631.73
2023-01-02T16:02:44.803Z,98632.50
2023-01-02T16:05:15.414Z,98632.68
2023-01-02T16:07:50.029Z,98633.08
2023-01-02T16:10:24.293Z,98631.90
2023-01-02T16:12:57.171Z,98629.54
2023-01-02T16:15:31.052Z,98628.27
2023-01-02T16:17:59.372Z,98629.83
2023-01-02T16:20:28.739Z,98626.52
2023-01-02T16:23:07.655Z,98622.48
2023-01-02T16:25:43.627Z,98618.77
2023-01-02T16:28:35.604Z,98618.66
2023-01-02T16:31:08.032Z,98614.02
2023-01-02T16:33:36.584Z,98611.23
2023-01-02T16:36:04.813Z,98607.26
2023-01-02T16:38:45.689Z,98605.15
2023-01-02T16:41:44.850Z,98606.31
2023-01-02T16:44:15.743Z,98610.95
2023-01-02T16:46:46.637Z,98608.68
2023-01-02T16:49:18.979Z,98612.88
2023-01-02T16:51:50.823Z,98610.69
2023-01-02T16:54:19.812Z,98610.07
2023-01-02T16:56:50.066Z,98608.77
2023-01-02T16:59:18.364Z,98609.69
2023-01-02T17:01:46.439Z,98604.50
2023-01-02T17:04:16.037Z,98603.85
2023-01-02T17:06:44.220Z,98603.89
2023-01-02T17:09:12.691Z,98608.45
2023-01-02T17:12:00.064Z,98605.02
2023-01-02T17:14:31.097Z,98606.54
2023-01-02T17:17:00.162Z,98606.08
2023-01-02T17:19:28.977Z,98604.15
2023-01-02T17:21:57.495Z,98605.67
2023-01-02T17:24:26.098Z,98606.80
2023-01-02T17:26:54.514Z,98606.13
2023-01-02T17:29:22.962Z,98607.77
2023-01-02T17:31:51.059Z,98605.52
2023-01-02T17:34:19.119Z,98608.77
2023-01-02T17:36:47.288Z,98611.90
2023-01-02T17:39:16.087Z,98608.33
2023-01-02T17:41:44.268Z,98608.92
2023-01-02T17:44:12.287Z,98608.40
2023-01-02T17:49:28.575Z,98609.86
2023-01-02T17:51:56.763Z,98611.06
2023-01-02T17:54:25.094Z,98608.84
2023-01-02T17:56:53.174Z,98605.73
2023-01-02T17:59:21.429Z,98602.63
2023-01-02T18:01:49.838Z,98605.06
2023-01-02T18:04:18.303Z,98605.92
2023-01-02T18:06:46.970Z,98606.30
2023-01-02T18:09:15.175Z,98607.34
2023-01-02T18:11:44.797Z,98605.58
2023-01-02T18:14:22.388Z,98603.48
2023-01-02T18:16:51.846Z,98602.86
2023-01-02T18:19:33.499Z,98599.29
2023-01-02T18:22:01.824Z,98595.75
2023-01-02T18:24:32.075Z,98599.68
2023-01-02T18:27:10.500Z,98599.91
2023-01-02T18:29:40.181Z,98593.77
2023-01-02T18:32:23.271Z,98592.79
2023-01-02T18:34:57.496Z,98595.26
2023-01-02T18:37:29.464Z,98596.17
2023-01-02T18:40:00.872Z,98598.08
2023-01-02T18:42:33.763Z,98599.84
2023-01-02T18:45:12.680Z,98597.77
2023-01-02T18:47:41.998Z,98597.80
2023-01-02T18:50:15.755Z,98596.64
2023-01-02T18:52:47.963Z,98594.77
2023-01-02T18:55:28.319Z,98594.56
2023-01-02T18:58:09.547Z,98597.83
2023-01-02T19:00:39.676Z,98597.06
2023-01-02T19:03:28.264Z,98594.36
2023-01-02T19:05:56.709Z,98593.91
2023-01-02T19:08:35.133Z,98595.09
2023-01-02T19:11:36.746Z,98597.09
2023-01-02T19:14:15.582Z,98597.73
2023-01-02T19:16:43.854Z,98592.02
2023-01-02T19:19:17.089Z,98593.19
2023-01-02T19:21:45.571Z,98595.66
2023-01-02T19:24:22.831Z,98597.61
2023-01-02T19:26:56.672Z,98594.44
2023-01-02T19:29:27.256Z,98596.31
2023-01-02T19:32:10.947Z,98593.28
2023-01-02T19:34:43.466Z,98590.31
2023-01-02T19:37:11.753Z,98588.15
2023-01-02T19:39:51.490Z,98590.29
2023-01-02T19:42:22.099Z,98590.14
2023-01-02T19:44:58.653Z,98589.46
2023-01-02T19:47:29.848Z,98591.19
2023-01-02T19:49:59.389Z,98587.66
2023-01-02T19:52:29.478Z,98590.38
2023-01-02T19:54:58.550Z,98595.95
2023-01-02T19:57:27.128Z,98593.73
2023-01-02T19:59:56.244Z,98590.50
2023-01-02T20:02:26.120Z,98592.03
2023-01-02T20:04:55.721Z,98594.92
2023-01-02T20:07:25.565Z,98597.81
2023-01-02T20:09:54.153Z,98597.73
2023-01-02T20:12:34.801Z,98596.14
2023-01-02T20:15:07.224Z,98598.05
2023-01-02T20:17:36.933Z,98599.98
2023-01-02T20:20:07.383Z,98597.45
2023-01-02T20:22:36.282Z,98597.97
2023-01-02T20:25:04.842Z,98595.41
2023-01-02T20:27:32.931Z,98597.33
2023-01-02T20:30:01.233Z,98597.27
2023-01-02T20:32:29.240Z,98594.86
2023-01-02T20:34:59.037Z,98596.10
2023-01-02T20:37:27.177Z,98593.33
2023-01-02T20:39:55.257Z,98593.38
2023-01-02T20:42:23.358Z,98588.25
2023-01-02T20:44:51.558Z,98587.42
2023-01-02T20:47:19.777Z,98584.80
2023-01-02T20:49:47.953Z,98588.90
2023-01-02T20:52:16.120Z,98585.93
2023-01-02T20:54:44.215Z,98589.41
2023-01-02T20:57:12.297Z,98587.08
2023-01-02T20:59:40.284Z,98591.36
2023-01-02T21:02:08.562Z,98589.94
2023-01-02T21:04:37.386Z,98589.11
2023-01-02T21:07:06.715Z,98588.92
2023-01-02T21:09:35.043Z,98590.08
2023-01-02T21:12:03.311Z,98587.89
2023-01-02T21:14:37.332Z,98585.58
2023-01-02T21:17:05.951Z,98583.19
2023-01-02T21:19:33.946Z,98587.86
2023-01-02T21:22:01.987Z,98595.23
2023-01-02T21:24:30.295Z,98593.66
2023-01-02T21:26:58.424Z,98595.83
2023-01-02T21:29:28.457Z,98595.91
2023-01-02T21:31:56.350Z,98594.24
2023-01-02T21:34:24.398Z,98595.58
2023-01-02T21:36:52.294Z,98594.66
2023-01-02T21:39:20.539Z,98596.39
2023-01-02T21:42:07.265Z,98598.61
2023-01-02T21:44:35.267Z,98602.72
2023-01-02T21:47:03.516Z,98602.48
2023-01-02T21:49:31.668Z,98598.84
2023-01-02T21:52:00.383Z,98595.50
2023-01-02T21:54:28.586Z,98597.23
2023-01-02T21:56:57.325Z,98599.05
2023-01-02T21:59:25.899Z,98599.66
2023-01-02T22:01:56.773Z,98603.17
2023-01-02T22:04:25.037Z,98599.55
2023-01-02T22:09:41.041Z,98602.55
2023-01-02T22:12:09.108Z,98597.96
2023-01-02T22:14:39.231Z,98596.34
2023-01-02T22:17:09.791Z,98593.65
2023-01-02T22:19:38.260Z,98588.19
2023-01-02T22:22:06.630Z,98583.40
2023-01-02T22:24:40.717Z,98583.27
2023-01-02T22:27:13.057Z,98581.54
2023-01-02T22:30:18.579Z,98577.43
2023-01-02T22:32:34.542Z,98573.64
2023-01-02T22:35:05.414Z,98572.64
2023-01-02T22:37:33.907Z,98576.06
2023-01-02T22:40:02.262Z,98575.63
2023-01-02T22:43:07.440Z,98570.77
2023-01-02T22:45:47.970Z,98567.98
2023-01-02T22:48:32.766Z,98567.79
2023-01-02T22:51:02.571Z,98571.61
2023-01-02T22:53:36.131Z,98570.32
2023-01-02T22:56:15.879Z,98568.25
2023-01-02T22:58:44.522Z,98568.17
2023-01-02T23:01:21.928Z,98570.14
2023-01-02T23:03:50.706Z,98569.64
2023-01-02T23:06:22.108Z,98566.80
2023-01-02T23:08:52.059Z,98569.30
2023-01-02T23:11:21.459Z,98567.39
2023-01-02T23:13:56.072Z,98566.94
2023-01-02T23:16:43.307Z,98569.34
2023-01-02T23:19:14.815Z,98564.36
2023-01-02T23:21:48.129Z,98562.63
2023-01-02T23:24:20.204Z,98558.86
2023-01-02T23:26:51.184Z,98558.10
2023-01-02T23:29:20.620Z,98555.41
2023-01-02T23:31:50.792Z,98555.49
2023-01-02T23:34:23.586Z,98554.68
2023-01-02T23:36:54.038Z,98553.48
2023-01-02T23:39:24.441Z,98556.13
2023-01-02T23:41:53.608Z,98559.87
2023-01-02T23:44:23.319Z,98560.95
2023-01-02T23:46:51.600Z,98559.66
2023-01-02T23:49:20.337Z,98562.10
2023-01-02T23:51:49.365Z,98561.66
2023-01-02T23:54:19.618Z,98557.61
2023-01-02T23:56:51.022Z,98556.34
2023-01-02T23:59:21.921Z,98557.48
